createdAt,value
2019-02-26T00:00:44.881Z,18.77
2019-02-26T00:03:13.926Z,16.60
2019-02-26T00:05:47.868Z,16.93
2019-02-26T00:08:19.431Z,20.17
2019-02-26T00:10:50.219Z,21.77
2019-02-26T00:13:20.781Z,20.17
2019-02-26T00:15:51.259Z,18.57
2019-02-26T00:18:23.521Z,20.13
2019-02-26T00:20:54.525Z,18.43
2019-02-26T00:23:27.903Z,20.20
2019-02-26T00:25:58.418Z,17.50
2019-02-26T00:28:28.908Z,18.80
2019-02-26T00:31:01.238Z,19.37
2019-02-26T00:33:31.633Z,18.40
2019-02-26T00:36:02.189Z,16.90
2019-02-26T00:38:33.609Z,14.97
2019-02-26T00:41:06.101Z,18.90
2019-02-26T00:43:37.042Z,18.10
2019-02-26T00:46:08.612Z,19.53
2019-02-26T00:48:40.694Z,19.27
2019-02-26T00:51:11.898Z,18.97
2019-02-26T00:53:42.369Z,17.97
2019-02-26T00:56:12.902Z,20.43
2019-02-26T00:58:44.091Z,18.07
2019-02-26T01:01:17.701Z,18.93
2019-02-26T01:03:49.386Z,17.97
2019-02-26T01:06:20.070Z,17.50
2019-02-26T01:08:50.537Z,17.60
2019-02-26T01:11:21.554Z,18.33
2019-02-26T01:13:55.121Z,15.93
2019-02-26T01:16:25.641Z,17.07
2019-02-26T01:18:56.174Z,15.37
2019-02-26T01:21:28.585Z,17.70
2019-02-26T01:24:01.206Z,17.80
2019-02-26T01:26:31.076Z,17.80
2019-02-26T01:29:01.543Z,16.10
2019-02-26T01:31:33.888Z,15.17
2019-02-26T01:34:04.165Z,17.67
2019-02-26T01:36:34.646Z,16.40
2019-02-26T01:39:11.193Z,19.23
2019-02-26T01:41:43.425Z,15.97
2019-02-26T01:44:12.340Z,17.43
2019-02-26T01:46:42.832Z,15.43
2019-02-26T01:49:13.307Z,19.37
2019-02-26T01:51:45.732Z,14.37
2019-02-26T01:54:16.757Z,14.77
2019-02-26T01:56:47.309Z,16.53
2019-02-26T01:59:19.024Z,14.97
2019-02-26T02:01:51.508Z,15.63
2019-02-26T02:04:21.825Z,20.80
2019-02-26T02:06:54.334Z,15.43
2019-02-26T02:09:25.203Z,14.17
2019-02-26T02:11:57.415Z,15.70
2019-02-26T02:14:27.990Z,16.23
2019-02-26T02:16:58.507Z,15.67
2019-02-26T02:19:30.139Z,15.97
2019-02-26T02:22:01.179Z,15.37
2019-02-26T02:24:31.650Z,18.60
2019-02-26T02:27:02.119Z,17.50
2019-02-26T02:29:32.607Z,15.77
2019-02-26T02:32:04.971Z,16.90
2019-02-26T02:34:36.672Z,15.47
2019-02-26T02:37:07.483Z,16.33
2019-02-26T02:39:37.918Z,18.37
2019-02-26T02:42:10.713Z,16.80
2019-02-26T02:44:42.383Z,14.93
2019-02-26T02:47:12.728Z,16.60
2019-02-26T02:49:44.378Z,16.67
2019-02-26T02:52:16.074Z,12.17
2019-02-26T02:54:47.541Z,14.20
2019-02-26T02:57:18.753Z,19.20
2019-02-26T02:59:49.296Z,11.33
2019-02-26T03:02:20.592Z,13.40
2019-02-26T03:04:52.007Z,13.20
2019-02-26T03:07:23.725Z,12.13
2019-02-26T03:09:54.823Z,10.77
2019-02-26T03:12:25.308Z,14.07
2019-02-26T03:14:56.347Z,13.80
2019-02-26T03:17:28.094Z,18.60
2019-02-26T03:20:01.574Z,16.70
2019-02-26T03:22:30.739Z,16.17
2019-02-26T03:25:02.280Z,14.90
2019-02-26T03:27:34.276Z,17.20
2019-02-26T03:30:06.118Z,16.70
2019-02-26T03:32:41.278Z,13.60
2019-02-26T03:35:10.182Z,13.00
2019-02-26T03:37:41.047Z,17.90
2019-02-26T03:40:12.692Z,16.43
2019-02-26T03:42:44.224Z,12.10
2019-02-26T03:45:16.078Z,14.70
2019-02-26T03:47:46.550Z,13.93
2019-02-26T03:50:17.107Z,13.20
2019-02-26T03:52:47.556Z,11.73
2019-02-26T03:55:19.121Z,14.67
2019-02-26T03:57:53.280Z,15.83
2019-02-26T04:00:21.959Z,14.87
2019-02-26T04:02:52.447Z,14.77
2019-02-26T04:05:22.967Z,14.53
2019-02-26T04:07:55.723Z,13.33
2019-02-26T04:10:25.798Z,12.53
2019-02-26T04:12:58.193Z,18.80
2019-02-26T04:15:31.032Z,18.17
2019-02-26T04:18:00.648Z,15.53
2019-02-26T04:20:31.158Z,15.03
2019-02-26T04:23:01.609Z,15.73
2019-02-26T04:26:29.566Z,14.17
2019-02-26T04:29:25.649Z,12.83
2019-02-26T04:32:43.455Z,14.07
2019-02-26T04:35:44.776Z,14.87
2019-02-26T04:39:18.775Z,14.40
2019-02-26T04:42:23.789Z,11.80
2019-02-26T04:45:31.920Z,14.43
2019-02-26T04:48:02.603Z,16.57
2019-02-26T04:50:35.686Z,17.63
2019-02-26T04:53:08.426Z,16.73
2019-02-26T04:55:39.143Z,16.63
2019-02-26T04:58:12.207Z,19.77
2019-02-26T05:00:41.961Z,13.40
2019-02-26T05:03:14.887Z,13.43
2019-02-26T05:05:44.607Z,15.20
2019-02-26T05:08:17.622Z,16.20
2019-02-26T05:10:49.842Z,15.43
2019-02-26T05:13:21.835Z,16.03
2019-02-26T05:15:51.819Z,15.57
2019-02-26T05:18:23.249Z,16.93
2019-02-26T05:20:54.586Z,16.10
2019-02-26T05:23:26.050Z,15.67
2019-02-26T05:26:02.888Z,17.00
2019-02-26T05:28:35.309Z,13.43
2019-02-26T05:31:03.640Z,16.83
2019-02-26T05:33:38.163Z,14.67
2019-02-26T05:36:11.139Z,18.77
2019-02-26T05:38:40.857Z,18.10
2019-02-26T05:41:11.307Z,15.43
2019-02-26T05:43:41.849Z,14.77
2019-02-26T05:46:12.303Z,15.60
2019-02-26T05:48:43.870Z,15.07
2019-02-26T05:51:14.935Z,18.77
2019-02-26T05:53:45.502Z,16.07
2019-02-26T05:56:17.161Z,11.20
2019-02-26T05:58:48.198Z,15.07
2019-02-26T06:01:20.025Z,16.70
2019-02-26T06:03:51.906Z,17.60
2019-02-26T06:06:22.484Z,15.47
2019-02-26T06:08:55.293Z,15.57
2019-02-26T06:11:28.343Z,13.35
2019-02-26T06:13:58.956Z,15.87
2019-02-26T06:16:31.462Z,14.00
2019-02-26T06:19:02.075Z,17.87
2019-02-26T06:21:32.530Z,14.17
2019-02-26T06:24:03.361Z,17.57
2019-02-26T06:26:36.071Z,16.23
2019-02-26T06:29:06.769Z,16.80
2019-02-26T06:31:39.592Z,15.03
2019-02-26T06:34:11.870Z,15.27
2019-02-26T06:36:44.236Z,17.23
2019-02-26T06:39:15.168Z,14.33
2019-02-26T06:41:46.904Z,17.63
2019-02-26T06:44:18.589Z,12.47
2019-02-26T06:46:49.468Z,15.57
2019-02-26T06:49:22.343Z,17.53
2019-02-26T06:51:54.296Z,16.43
2019-02-26T06:54:27.113Z,16.03
2019-02-26T06:56:57.734Z,15.30
2019-02-26T06:59:34.011Z,13.17
2019-02-26T07:02:05.308Z,14.80
2019-02-26T07:04:36.227Z,17.13
2019-02-26T07:07:11.474Z,15.03
2019-02-26T07:09:41.575Z,16.17
2019-02-26T07:12:12.195Z,16.77
2019-02-26T07:14:43.116Z,15.37
2019-02-26T07:17:13.910Z,16.73
2019-02-26T07:19:44.723Z,17.87
2019-02-26T07:22:16.493Z,14.67
2019-02-26T07:24:49.477Z,15.97
2019-02-26T07:27:20.725Z,17.57
2019-02-26T07:29:52.381Z,15.93
2019-02-26T07:32:24.627Z,15.13
2019-02-26T07:34:58.028Z,15.07
2019-02-26T07:37:29.224Z,14.37
2019-02-26T07:40:03.237Z,13.53
2019-02-26T07:42:35.044Z,13.57
2019-02-26T07:45:14.643Z,14.87
2019-02-26T07:47:38.178Z,14.00
2019-02-26T07:50:11.137Z,20.33
2019-02-26T07:52:41.265Z,20.07
2019-02-26T07:55:14.721Z,17.23
2019-02-26T07:57:45.637Z,18.37
2019-02-26T08:00:19.665Z,22.57
2019-02-26T08:02:52.067Z,18.53
2019-02-26T08:05:24.288Z,14.70
2019-02-26T08:07:56.518Z,18.80
2019-02-26T08:10:27.177Z,18.80
2019-02-26T08:12:59.253Z,21.63
2019-02-26T08:15:30.839Z,21.90
2019-02-26T08:18:03.450Z,21.50
2019-02-26T08:20:35.665Z,23.90
2019-02-26T08:23:06.785Z,21.73
2019-02-26T08:25:37.325Z,18.80
2019-02-26T08:28:07.808Z,19.57
2019-02-26T08:30:40.141Z,23.00
2019-02-26T08:33:10.480Z,20.17
2019-02-26T08:35:40.955Z,24.73
2019-02-26T08:38:11.637Z,20.73
2019-02-26T08:40:42.156Z,17.83
2019-02-26T08:43:12.620Z,20.30
2019-02-26T08:45:43.205Z,18.90
2019-02-26T08:48:15.023Z,19.37
2019-02-26T08:50:46.337Z,19.87
2019-02-26T08:53:16.825Z,19.43
2019-02-26T08:55:47.297Z,19.27
2019-02-26T08:58:17.776Z,16.23
2019-02-26T09:00:48.371Z,20.13
2019-02-26T09:03:20.416Z,23.13
2019-02-26T09:05:51.590Z,18.33
2019-02-26T09:08:23.428Z,15.90
2019-02-26T09:10:53.988Z,15.67
2019-02-26T09:13:25.574Z,17.23
2019-02-26T09:15:58.181Z,15.00
2019-02-26T09:18:35.506Z,15.90
2019-02-26T09:21:03.994Z,16.03
2019-02-26T09:23:34.604Z,17.13
2019-02-26T09:26:07.051Z,17.30
2019-02-26T09:28:37.450Z,16.33
2019-02-26T09:31:09.628Z,15.73
2019-02-26T09:33:40.946Z,15.30
2019-02-26T09:36:14.956Z,14.10
2019-02-26T09:38:46.753Z,16.03
2019-02-26T09:41:19.393Z,14.03
2019-02-26T09:43:50.266Z,16.03
2019-02-26T09:46:20.739Z,14.67
2019-02-26T09:48:54.936Z,13.67
2019-02-26T09:51:25.567Z,15.60
2019-02-26T09:53:56.607Z,13.93
2019-02-26T09:56:29.785Z,12.03
2019-02-26T09:59:02.304Z,17.70
2019-02-26T10:01:35.010Z,14.73
2019-02-26T10:04:05.435Z,14.60
2019-02-26T10:06:37.946Z,15.30
2019-02-26T10:09:11.300Z,16.83
2019-02-26T10:11:42.445Z,15.23
2019-02-26T10:14:15.071Z,13.57
2019-02-26T10:16:47.087Z,14.67
2019-02-26T10:19:19.507Z,14.40
2019-02-26T10:21:50.138Z,13.20
2019-02-26T10:24:22.945Z,15.20
2019-02-26T10:26:53.081Z,14.10
2019-02-26T10:29:23.753Z,11.43
2019-02-26T10:31:56.306Z,12.17
2019-02-26T10:34:30.270Z,11.43
2019-02-26T10:36:58.824Z,13.33
2019-02-26T10:39:29.310Z,12.37
2019-02-26T10:42:01.908Z,15.13
2019-02-26T10:44:32.111Z,15.10
2019-02-26T10:47:03.263Z,14.97
2019-02-26T10:49:36.435Z,13.83
2019-02-26T10:52:07.004Z,15.23
2019-02-26T10:54:40.570Z,13.30
2019-02-26T10:57:11.315Z,14.70
2019-02-26T10:59:44.927Z,13.60
2019-02-26T11:02:17.282Z,14.20
2019-02-26T11:04:49.541Z,15.87
2019-02-26T11:07:20.874Z,16.60
2019-02-26T11:09:53.650Z,18.00
2019-02-26T11:12:27.738Z,19.17
2019-02-26T11:14:58.569Z,15.73
2019-02-26T11:17:31.635Z,17.13
2019-02-26T11:20:04.591Z,17.90
2019-02-26T11:22:34.554Z,16.80
2019-02-26T11:25:05.515Z,17.30
2019-02-26T11:27:38.009Z,17.07
2019-02-26T11:30:10.764Z,18.97
2019-02-26T11:32:42.270Z,18.27
2019-02-26T11:35:15.244Z,19.47
2019-02-26T11:37:47.299Z,16.03
2019-02-26T11:40:20.308Z,18.47
2019-02-26T11:42:51.339Z,18.47
2019-02-26T11:45:22.009Z,21.83
2019-02-26T11:47:52.751Z,18.83
2019-02-26T11:50:27.167Z,19.10
2019-02-26T11:52:55.972Z,19.53
2019-02-26T11:55:29.298Z,20.10
2019-02-26T11:57:58.951Z,19.57
2019-02-26T12:00:57.726Z,19.23
2019-02-26T12:03:31.101Z,19.43
2019-02-26T12:06:01.905Z,19.00
2019-02-26T12:08:32.894Z,18.70
2019-02-26T12:11:06.490Z,18.10
2019-02-26T12:13:35.850Z,21.90
2019-02-26T12:16:06.365Z,21.50
2019-02-26T12:18:39.030Z,18.80
2019-02-26T12:21:10.531Z,21.67
2019-02-26T12:23:43.929Z,17.37
2019-02-26T12:26:13.870Z,21.27
2019-02-26T12:28:45.254Z,19.67
2019-02-26T12:31:15.959Z,21.57
2019-02-26T12:33:46.519Z,20.30
2019-02-26T12:36:17.071Z,17.47
2019-02-26T12:38:50.141Z,22.53
2019-02-26T12:41:21.013Z,21.10
2019-02-26T12:43:51.847Z,18.93
2019-02-26T12:46:24.352Z,17.52
2019-02-26T12:48:55.244Z,17.23
2019-02-26T12:51:28.086Z,19.07
2019-02-26T12:53:58.296Z,19.97
2019-02-26T12:56:29.967Z,19.70
2019-02-26T12:59:01.194Z,19.40
2019-02-26T13:01:33.306Z,20.83
2019-02-26T13:04:09.402Z,20.30
2019-02-26T13:06:42.115Z,21.77
2019-02-26T13:09:13.229Z,18.47
2019-02-26T13:12:00.639Z,22.07
2019-02-26T13:14:16.157Z,16.33
2019-02-26T13:16:48.618Z,18.23
2019-02-26T13:19:21.977Z,17.33
2019-02-26T13:21:51.767Z,18.77
2019-02-26T13:24:26.652Z,16.50
2019-02-26T13:26:59.702Z,16.63
2019-02-26T13:29:28.255Z,16.33
2019-02-26T13:31:59.954Z,15.03
2019-02-26T13:34:30.760Z,17.67
2019-02-26T13:37:01.359Z,16.67
2019-02-26T13:39:38.625Z,15.73
2019-02-26T13:42:10.029Z,16.67
2019-02-26T13:44:36.811Z,21.63
2019-02-26T13:47:07.491Z,15.33
2019-02-26T13:49:38.040Z,18.10
2019-02-26T13:52:08.625Z,17.37
2019-02-26T13:54:39.206Z,14.50
2019-02-26T13:57:09.798Z,17.13
2019-02-26T13:59:40.389Z,16.37
2019-02-26T14:02:10.999Z,15.87
2019-02-26T14:04:41.627Z,18.17
2019-02-26T14:07:12.207Z,15.73
2019-02-26T14:09:42.719Z,15.67
2019-02-26T14:12:13.686Z,13.97
2019-02-26T14:14:44.264Z,16.53
2019-02-26T14:17:14.886Z,13.73
2019-02-26T14:19:45.427Z,15.50
2019-02-26T14:22:16.024Z,14.47
2019-02-26T14:24:46.628Z,13.17
2019-02-26T14:27:17.254Z,13.40
2019-02-26T14:29:47.811Z,13.43
2019-02-26T14:32:18.404Z,13.10
2019-02-26T14:34:48.985Z,11.83
2019-02-26T14:37:19.559Z,13.77
2019-02-26T14:39:50.164Z,13.37
2019-02-26T14:42:21.668Z,14.70
2019-02-26T14:44:52.415Z,16.80
2019-02-26T14:47:23.029Z,13.57
2019-02-26T14:49:55.948Z,15.77
2019-02-26T14:52:26.517Z,15.13
2019-02-26T14:54:57.214Z,15.07
2019-02-26T14:57:27.716Z,13.67
2019-02-26T14:59:58.349Z,10.13
2019-02-26T15:02:28.904Z,10.03
2019-02-26T15:04:59.534Z,10.67
2019-02-26T15:07:30.608Z,9.33
2019-02-26T15:10:01.250Z,9.33
2019-02-26T15:12:31.874Z,10.80
2019-02-26T15:15:02.454Z,11.27
2019-02-26T15:17:33.054Z,9.60
2019-02-26T15:20:03.555Z,10.73
2019-02-26T15:22:34.217Z,9.10
2019-02-26T15:25:04.993Z,12.30
2019-02-26T15:27:37.031Z,11.73
2019-02-26T15:30:09.052Z,11.03
2019-02-26T15:32:39.619Z,13.13
2019-02-26T15:35:10.344Z,10.53
2019-02-26T15:37:41.029Z,10.63
2019-02-26T15:40:12.792Z,10.93
2019-02-26T15:42:43.406Z,11.33
2019-02-26T15:45:17.499Z,11.47
2019-02-26T15:48:45.225Z,10.47
2019-02-26T15:51:19.935Z,11.50
2019-02-26T15:53:48.063Z,15.70
2019-02-26T15:56:18.636Z,14.40
2019-02-26T15:58:49.173Z,13.47
2019-02-26T16:01:19.884Z,13.35
2019-02-26T16:03:50.397Z,14.07
2019-02-26T16:06:21.063Z,13.17
2019-02-26T16:08:51.626Z,17.80
2019-02-26T16:11:22.199Z,15.73
2019-02-26T16:13:52.795Z,14.90
2019-02-26T16:16:23.405Z,14.77
2019-02-26T16:18:54.018Z,12.40
2019-02-26T16:21:25.662Z,14.60
2019-02-26T16:23:56.407Z,13.20
2019-02-26T16:26:26.952Z,19.10
2019-02-26T16:29:00.823Z,17.90
2019-02-26T16:31:30.489Z,17.10
2019-02-26T16:34:01.213Z,17.80
2019-02-26T16:36:32.241Z,20.17
2019-02-26T16:39:02.840Z,15.37
2019-02-26T16:41:35.685Z,12.70
2019-02-26T16:44:06.788Z,12.00
2019-02-26T16:46:39.592Z,14.00
2019-02-26T16:49:09.579Z,12.60
2019-02-26T16:51:40.071Z,14.93
2019-02-26T16:54:10.566Z,14.70
2019-02-26T16:56:41.307Z,14.03
2019-02-26T16:59:11.854Z,14.37
2019-02-26T17:01:43.681Z,14.10
2019-02-26T17:04:14.328Z,17.77
2019-02-26T17:06:44.802Z,17.83
2019-02-26T17:09:15.472Z,14.47
2019-02-26T17:11:47.081Z,17.33
2019-02-26T17:14:18.125Z,16.57
2019-02-26T17:16:48.644Z,14.60
2019-02-26T17:19:19.333Z,15.40
2019-02-26T17:21:50.148Z,14.97
2019-02-26T17:24:21.385Z,13.53
2019-02-26T17:26:52.044Z,17.47
2019-02-26T17:29:22.956Z,14.70
2019-02-26T17:31:55.649Z,16.67
2019-02-26T17:34:26.327Z,18.67
2019-02-26T17:36:56.993Z,16.10
2019-02-26T17:39:28.617Z,18.37
2019-02-26T17:41:59.347Z,17.10
2019-02-26T17:44:30.229Z,19.07
2019-02-26T17:47:00.925Z,16.43
2019-02-26T17:49:33.646Z,17.23
2019-02-26T17:52:06.493Z,15.50
2019-02-26T17:54:37.455Z,16.70
2019-02-26T17:57:08.209Z,16.03
2019-02-26T17:59:38.726Z,16.97
2019-02-26T18:02:09.363Z,16.57
2019-02-26T18:04:39.953Z,19.67
2019-02-26T18:07:10.483Z,16.10
2019-02-26T18:09:41.303Z,16.67
2019-02-26T18:12:12.361Z,18.57
2019-02-26T18:14:42.858Z,16.80
2019-02-26T18:17:13.685Z,18.70
2019-02-26T18:19:44.349Z,20.70
2019-02-26T18:22:15.219Z,19.67
2019-02-26T18:24:45.920Z,25.63
2019-02-26T18:27:16.461Z,18.30
2019-02-26T18:29:47.124Z,21.17
2019-02-26T18:32:17.971Z,24.17
2019-02-26T18:34:48.662Z,24.57
2019-02-26T18:37:20.449Z,23.03
2019-02-26T18:39:54.384Z,22.83
2019-02-26T18:42:24.745Z,22.53
2019-02-26T18:44:55.577Z,22.00
2019-02-26T18:47:26.061Z,23.07
2019-02-26T18:49:56.527Z,22.80
2019-02-26T18:52:27.043Z,18.80
2019-02-26T18:55:00.922Z,23.10
2019-02-26T18:57:31.735Z,28.23
2019-02-26T19:00:02.472Z,23.40
2019-02-26T19:02:33.543Z,20.33
2019-02-26T19:05:05.671Z,20.30
2019-02-26T19:07:36.546Z,21.43
2019-02-26T19:10:09.355Z,19.27
2019-02-26T19:12:39.863Z,19.17
2019-02-26T19:15:12.637Z,18.43
2019-02-26T19:17:47.387Z,24.03
2019-02-26T19:20:19.594Z,18.73
2019-02-26T19:22:51.950Z,20.73
2019-02-26T19:25:22.344Z,20.13
2019-02-26T19:27:53.643Z,24.73
2019-02-26T19:30:27.335Z,18.10
2019-02-26T19:32:57.845Z,22.10
2019-02-26T19:35:28.441Z,18.10
2019-02-26T19:37:59.635Z,21.43
2019-02-26T19:40:38.798Z,19.70
2019-02-26T19:43:06.796Z,18.13
2019-02-26T19:45:37.272Z,19.50
2019-02-26T19:48:07.859Z,22.55
2019-02-26T19:50:38.384Z,22.93
2019-02-26T19:53:10.808Z,22.20
2019-02-26T19:55:41.843Z,19.37
2019-02-26T19:58:12.531Z,23.00
2019-02-26T20:00:44.672Z,25.10
2019-02-26T20:03:15.142Z,17.67
2019-02-26T20:05:46.642Z,19.80
2019-02-26T20:08:17.930Z,18.17
2019-02-26T20:10:50.993Z,20.57
2019-02-26T20:13:21.866Z,20.73
2019-02-26T20:15:54.666Z,24.07
2019-02-26T20:18:26.048Z,19.57
2019-02-26T20:20:58.763Z,21.25
2019-02-26T20:23:29.438Z,22.27
2019-02-26T20:26:00.874Z,26.47
2019-02-26T20:28:35.252Z,20.43
2019-02-26T20:31:03.967Z,19.60
2019-02-26T20:33:34.507Z,20.00
2019-02-26T20:36:05.117Z,22.52
2019-02-26T20:38:36.539Z,22.20
2019-02-26T20:41:07.029Z,21.53
2019-02-26T20:43:37.732Z,22.23
2019-02-26T20:46:08.356Z,24.53
2019-02-26T20:48:39.004Z,25.87
2019-02-26T20:51:09.660Z,24.13
2019-02-26T20:53:40.567Z,25.30
2019-02-26T20:56:11.348Z,25.07
2019-02-26T20:58:44.927Z,24.30
2019-02-26T21:01:15.922Z,22.37
2019-02-26T21:03:46.469Z,21.87
2019-02-26T21:06:18.085Z,23.13
2019-02-26T21:08:49.311Z,22.40
2019-02-26T21:11:22.698Z,24.60
2019-02-26T21:13:52.352Z,22.20
2019-02-26T21:16:23.026Z,23.30
2019-02-26T21:18:53.847Z,22.77
2019-02-26T21:21:26.562Z,21.43
2019-02-26T21:24:00.409Z,29.17
2019-02-26T21:26:29.695Z,26.97
2019-02-26T21:29:00.367Z,27.23
2019-02-26T21:31:31.064Z,23.80
2019-02-26T21:34:03.705Z,28.47
2019-02-26T21:36:36.624Z,24.87
2019-02-26T21:39:10.797Z,24.70
2019-02-26T21:41:40.629Z,25.23
2019-02-26T21:44:11.297Z,24.97
2019-02-26T21:46:41.896Z,20.07
2019-02-26T21:49:12.495Z,23.03
2019-02-26T21:51:43.227Z,21.60
2019-02-26T21:54:13.839Z,26.60
2019-02-26T21:56:48.727Z,26.95
2019-02-26T21:59:17.138Z,24.67
2019-02-26T22:01:47.983Z,22.30
2019-02-26T22:04:18.711Z,23.53
2019-02-26T22:06:49.328Z,22.23
2019-02-26T22:09:19.778Z,27.37
2019-02-26T22:11:50.803Z,22.13
2019-02-26T22:14:22.079Z,24.47
2019-02-26T22:16:52.858Z,23.03
2019-02-26T22:19:23.440Z,19.33
2019-02-26T22:21:55.008Z,20.27
2019-02-26T22:24:25.715Z,21.20
2019-02-26T22:26:59.450Z,23.30
2019-02-26T22:29:29.964Z,21.30
2019-02-26T22:32:02.368Z,22.80
2019-02-26T22:34:33.267Z,24.83
2019-02-26T22:37:07.073Z,21.43
2019-02-26T22:39:36.436Z,20.03
2019-02-26T22:42:08.153Z,20.50
2019-02-26T22:44:39.072Z,20.40
2019-02-26T22:47:09.563Z,20.23
2019-02-26T22:49:40.144Z,19.87
2019-02-26T22:52:10.914Z,18.50
2019-02-26T22:54:43.622Z,22.30
2019-02-26T22:57:14.113Z,21.37
2019-02-26T22:59:45.096Z,17.73
2019-02-26T23:02:15.829Z,19.10
2019-02-26T23:04:46.467Z,16.33
2019-02-26T23:07:17.230Z,20.57
2019-02-26T23:09:52.076Z,23.20
2019-02-26T23:12:20.457Z,17.93
2019-02-26T23:14:50.950Z,20.13
2019-02-26T23:17:24.847Z,16.83
2019-02-26T23:19:56.731Z,19.40
2019-02-26T23:22:27.804Z,17.60
2019-02-26T23:25:00.701Z,17.87
2019-02-26T23:27:30.722Z,18.67
2019-02-26T23:30:01.282Z,17.53
2019-02-26T23:32:32.093Z,18.67
2019-02-26T23:35:09.397Z,19.77
2019-02-26T23:37:40.111Z,20.70
2019-02-26T23:40:11.715Z,23.00
2019-02-26T23:42:43.069Z,19.73
2019-02-26T23:45:14.399Z,15.43
2019-02-26T23:47:45.333Z,15.83
2019-02-26T23:50:16.545Z,18.47
2019-02-26T23:52:47.131Z,20.23
2019-02-26T23:55:18.199Z,15.33
2019-02-26T23:57:48.720Z,16.97
